ADDS METAR Data INFO
IDs: Format: Raw Decoded Include TAF

Data at: 1428 UTC 20 Sep 2017

KRWL 201353Z AUTO 00000KT 10SM CLR 03/M01 A3001 RMK AO2 SLP145 T00331011
KRWL 201253Z AUTO 22005KT 10SM CLR 02/M02 A2999 RMK AO2 SLP144 T00171017
KRWL 201153Z AUTO 24008KT 10SM BKN095 02/M01 A2999 RMK AO2 SLP140 70033 T00221006 10039 20022 50001
KRWL 201053Z AUTO 24010KT 10SM OVC110 03/M01 A2999 RMK AO2 SLP143 T00281006
KRWL 200953Z AUTO 24010KT 10SM BKN100 OVC110 03/M01 A2999 RMK AO2 SLP143 T00281006
KRWL 200853Z AUTO 24012KT 10SM FEW080 BKN090 OVC120 03/M01 A2999 RMK AO2 SLP149 T00281011 53005
KRWL 200753Z AUTO 25018G25KT 10SM SCT070 OVC095 04/M02 A2998 RMK AO2 PK WND 25026/0733 SLP138 T00391017
KRWL 200653Z AUTO 25017KT 10SM BKN095 BKN110 03/M01 A2998 RMK AO2 SLP145 T00281011 401670006
KRWL 200553Z AUTO 25018KT 10SM FEW090 SCT110 03/M01 A2997 RMK AO2 SLP129 60000 T00331011 10039 20022 53004
KRWL 200453Z AUTO 24020KT 10SM CLR 02/M01 A2995 RMK AO2 PK WND 25026/0419 SLP106 T00221006
KRWL 200353Z AUTO 25016KT 10SM CLR 03/M01 A2995 RMK AO2 SLP093 T00281006
KRWL 200253Z AUTO 24016KT 10SM FEW070 03/M01 A2995 RMK AO2 SLP105 60000 T00281006 51013
KRWL 200153Z AUTO 25015KT 10SM SCT038 SCT075 BKN100 03/M01 A2994 RMK AO2 UPB24E39 SLP101 P0000 T00281006
KRWL 200053Z AUTO 25018G23KT 10SM BKN055 OVC070 03/00 A2994 RMK AO2 SLP100 T00330000
KRWL 192353Z AUTO 24018G24KT 10SM SCT050 SCT100 04/01 A2991 RMK AO2 SLP079 60031 T00390006 10039 20006 56010
KRWL 192253Z AUTO 23013KT 10SM FEW050 BKN070 OVC085 03/01 A2991 RMK AO2 UPB24E26SNB09E21B26E36 SLP076 P0000 T00280011
KRWL 192153Z AUTO 23010KT 10SM FEW033 BKN040 OVC070 02/01 A2992 RMK AO2 UPB40E49RAB49E50SNE40 SLP081 P0001 T00220006
KRWL 192142Z AUTO 22014KT 9SM UP FEW005 BKN038 OVC070 01/00 A2993 RMK AO2 UPB40SNE40 P0001 T00110000
KRWL 192133Z AUTO 22012KT 7SM -SN FEW005 BKN024 OVC050 01/00 A2992 RMK AO2 P0001 T00110000
KRWL 192126Z AUTO 23012KT 2 1/2SM -SN BR SCT005 BKN016 OVC041 01/00 A2991 RMK AO2 P0001 T00110000
KRWL 192120Z AUTO 23011KT 1SM -SN BR SCT006 OVC010 01/00 A2992 RMK AO2 P0001 T00060000
KRWL 192053Z AUTO 24011G21KT 1/2SM SN FG VV008 01/M01 A2995 RMK AO2 PK WND 29026/2023 SLP092 P0009 60030 T00061006 51026
KRWL 192034Z AUTO 25012KT 1/2SM SN FG VV009 01/M01 A2994 RMK AO2 PK WND 29026/2023 P0006 T00061006
KRWL 192022Z AUTO 26014G22KT 3/4SM -SN BR VV010 01/M01 A2992 RMK AO2 P0004 T00061006
KRWL 192010Z AUTO 25013KT 1 3/4SM -SN BR OVC010 01/00 A2993 RMK AO2 P0002 T00110000
KRWL 191953Z AUTO 27014KT 1SM -SN BR VV009 01/00 A2991 RMK AO2 SLP084 P0012 T00110000
KRWL 191903Z AUTO 27013KT 3/4SM -SN BR VV008 01/00 A2990 RMK AO2 P0001 T00060000
KRWL 191853Z AUTO 28014G24KT 1/2SM SN FG VV011 01/00 A2990 RMK AO2 PK WND 30027/1811 RAE29SNB29 SLP083 P0009 T00060000
KRWL 191846Z AUTO 28015G25KT 3/4SM -SN BR VV014 01/00 A2990 RMK AO2 PK WND 30027/1811 RAE29SNB29 P0008 T00110000
KRWL 191841Z AUTO 28021G25KT 1SM -SN BR BKN017 OVC036 01/00 A2990 RMK AO2 PK WND 30027/1811 RAE29SNB29 P0007 T00110000
KRWL 191831Z AUTO 28017G23KT 2 1/2SM -SN BR FEW010 BKN027 OVC036 02/01 A2989 RMK AO2 PK WND 30027/1811 RAE29SNB29 P0004 T00220006
KRWL 191824Z AUTO 29016G23KT 2SM RA BR FEW010 BKN031 OVC045 02/01 A2987 RMK AO2 PK WND 30027/1811 P0003 T00220006
KRWL 191753Z AUTO 28018G29KT 6SM -RA BR SCT035 OVC043 04/02 A2985 RMK AO2 PK WND 29038/1703 SLP052 P0002 60002 T00390022 10144 20039 53024
KRWL 191653Z AUTO 28018KT 10SM -RA OVC080 11/03 A2979 RMK AO2 PK WND 27026/1633 RAB08E18B48 SLP014 P0000 T01110033
KRWL 191553Z AUTO 27018KT 10SM BKN100 14/03 A2978 RMK AO2 SLP004 T01440028
KRWL 191453Z AUTO 26016KT 10SM CLR 12/03 A2977 RMK AO2 SLP003 T01170033 58002
KRWL 191353Z AUTO 25013KT 10SM CLR 10/04 A2978 RMK AO2 SLP009 T01000039
KRWL 191253Z AUTO 26017G22KT 10SM CLR 11/03 A2979 RMK AO2 PK WND 25028/1156 SLP004 T01060033
KRWL 191153Z AUTO 26018G27KT 10SM CLR 13/M01 A2978 RMK AO2 PK WND 26029/1127 SLP988 T01331011 10167 20133 53003
KRWL 191053Z AUTO 22022G31KT 10SM CLR 16/M06 A2977 RMK AO2 PK WND 21037/0955 SLP981 T01611061
KRWL 190953Z AUTO 21025G39KT 10SM CLR 17/M07 A2975 RMK AO2 PK WND 22039/0949 SLP974 T01671067
KRWL 190853Z AUTO 21024G34KT 10SM CLR 17/M06 A2977 RMK AO2 PK WND 21038/0838 SLP979 T01671056 56020
KRWL 190753Z AUTO 21012KT 10SM CLR 16/M03 A2979 RMK AO2 PK WND 22026/0736 SLP990 T01561033
KRWL 190653Z AUTO 20012G19KT 10SM CLR 15/M01 A2981 RMK AO2 SLP001 T01501006 402220050
KRWL 190453Z AUTO 20015KT 10SM CLR 15/M02 A2986 RMK AO2 SLP023 T01501017
KRWL 190353Z AUTO 20012KT 10SM CLR 14/M01 A2988 RMK AO2 SLP032 T01441011
KRWL 190253Z AUTO 21011KT 10SM CLR 16/00 A2989 RMK AO2 SLP042 T01560000 58014